Time;durP1;ratioP1;P1;durP2;ratioP2;P2;SDS_P1;SDS_P2;PMS_P1;PMS_P2;Temp;Humidity;BMP_temperature;BMP_pressure;BME280_temperature;BME280_humidity;BME280_pressure;Samples;Min_cycle;Max_cycle;Signal;HPM_P1;HPM_P2
2021/11/01 00:02:04;;;;;;;22.38;3.85;;;;;;;-146.90;100.00;60518.97;5031035;28;20387;-76
2021/11/01 00:04:29;;;;;;;15.52;3.83;;;;;;;-146.90;100.00;60518.97;5030440;28;20068;-76
2021/11/01 00:06:54;;;;;;;12.18;3.22;;;;;;;-146.90;100.00;60518.97;5030089;28;20071;-75
2021/11/01 00:09:20;;;;;;;18.65;3.17;;;;;;;-146.90;100.00;60518.97;5030085;28;20029;-75
2021/11/01 00:11:45;;;;;;;19.55;5.25;;;;;;;-146.90;100.00;60518.97;5008941;28;20486;-75
2021/11/01 00:14:11;;;;;;;14.20;2.90;;;;;;;-146.90;100.00;60518.97;5022469;28;20029;-75
2021/11/01 00:16:36;;;;;;;14.98;3.17;;;;;;;-146.90;100.00;60518.97;5029877;28;20025;-76
2021/11/01 00:19:02;;;;;;;17.15;3.25;;;;;;;-146.90;100.00;60518.97;5030483;28;20037;-75
2021/11/01 00:21:27;;;;;;;12.85;3.15;;;;;;;-146.90;100.00;60518.97;5028488;28;20029;-76
2021/11/01 00:23:53;;;;;;;20.90;3.55;;;;;;;-146.90;100.00;60518.97;5029027;28;20026;-75
2021/11/01 00:26:18;;;;;;;20.25;3.65;;;;;;;-146.90;100.00;60518.97;5029358;28;20309;-76
2021/11/01 00:28:44;;;;;;;27.13;4.43;;;;;;;-146.90;100.00;60518.97;5030108;28;20101;-75
2021/11/01 00:31:10;;;;;;;24.67;3.13;;;;;;;-146.90;100.00;60518.97;5028540;28;20410;-77
2021/11/01 00:33:36;;;;;;;23.75;3.47;;;;;;;-146.90;100.00;60518.97;5030294;28;20418;-76
2021/11/01 00:36:01;;;;;;;29.25;4.75;;;;;;;-146.90;100.00;60518.97;5028036;28;20055;-76
2021/11/01 00:38:26;;;;;;;14.85;3.20;;;;;;;-146.90;100.00;60518.97;5028651;28;20026;-75
2021/11/01 00:40:52;;;;;;;15.27;3.42;;;;;;;-146.90;100.00;60518.97;5012017;28;20033;-77
2021/11/01 00:43:17;;;;;;;18.85;3.50;;;;;;;-146.90;100.00;60518.97;5029796;28;20372;-76
2021/11/01 00:45:42;;;;;;;21.00;3.35;;;;;;;-146.90;100.00;60518.97;5029085;28;20434;-76
2021/11/01 00:48:08;;;;;;;18.42;3.53;;;;;;;-146.90;100.00;60518.97;5030008;28;20036;-77
2021/11/01 00:50:35;;;;;;;18.42;3.78;;;;;;;-146.90;100.00;60518.97;5029523;28;20024;-75
2021/11/01 00:53:00;;;;;;;19.13;3.25;;;;;;;-146.90;100.00;60518.97;5028340;28;20029;-78
2021/11/01 00:55:35;;;;;;;23.75;3.92;;;;;;;-146.90;100.00;60518.97;5027324;28;20070;-78
2021/11/01 00:58:01;;;;;;;16.60;3.72;;;;;;;-146.90;100.00;60518.97;5029491;28;20029;-76
2021/11/01 01:00:29;;;;;;;14.70;3.42;;;;;;;-146.90;100.00;60518.97;5028160;28;20048;-77
2021/11/01 01:02:54;;;;;;;17.30;2.90;;;;;;;-146.90;100.00;60518.97;5029284;28;20055;-77
2021/11/01 01:05:19;;;;;;;16.48;3.10;;;;;;;-146.90;100.00;60518.97;5028569;28;20037;-77
2021/11/01 01:07:45;;;;;;;19.88;3.05;;;;;;;-146.90;100.00;60518.97;5027643;28;20029;-76
2021/11/01 01:10:10;;;;;;;12.15;2.85;;;;;;;-146.90;100.00;60518.97;5029512;28;20028;-76
2021/11/01 01:12:41;;;;;;;15.80;2.75;;;;;;;-146.90;100.00;60518.97;5029564;28;20018;-76
2021/11/01 01:15:11;;;;;;;17.10;3.83;;;;;;;-146.90;100.00;60518.97;5027571;28;20044;-76
2021/11/01 01:17:38;;;;;;;23.83;3.85;;;;;;;-146.90;100.00;60518.97;5011470;28;20029;-76
2021/11/01 01:20:08;;;;;;;12.00;2.67;;;;;;;-146.90;100.00;60518.97;5028112;28;20040;-75
2021/11/01 01:22:34;;;;;;;20.45;3.30;;;;;;;-146.90;100.00;60518.97;5028087;28;20056;-76
2021/11/01 01:25:26;;;;;;;18.95;3.90;;;;;;;-146.90;100.00;60518.97;5010875;28;20079;-75
2021/11/01 01:27:52;;;;;;;18.10;2.80;;;;;;;-146.90;100.00;60518.97;5027630;28;20549;-77
2021/11/01 01:30:18;;;;;;;20.40;3.47;;;;;;;-146.90;100.00;60518.97;5027905;28;20104;-76
2021/11/01 01:32:44;;;;;;;17.95;3.08;;;;;;;-146.90;100.00;60518.97;5027102;28;20101;-76
2021/11/01 01:35:10;;;;;;;10.43;2.70;;;;;;;-146.90;100.00;60518.97;5027018;28;20041;-76
2021/11/01 01:37:36;;;;;;;12.30;3.03;;;;;;;-146.90;100.00;60518.97;5028964;28;20037;-76
2021/11/01 01:40:02;;;;;;;16.52;3.42;;;;;;;-146.90;100.00;60518.97;5027923;28;20363;-76
2021/11/01 01:42:28;;;;;;;13.77;2.50;;;;;;;-146.90;100.00;60518.97;5028996;28;20084;-75
2021/11/01 01:44:54;;;;;;;17.65;3.03;;;;;;;-146.90;100.00;60518.97;5028177;28;20173;-76
2021/11/01 01:47:20;;;;;;;13.85;3.40;;;;;;;-146.90;100.00;60518.97;5027360;28;20026;-76
2021/11/01 01:49:45;;;;;;;16.02;2.88;;;;;;;-146.90;100.00;60518.97;5028707;28;20353;-75
2021/11/01 01:52:11;;;;;;;19.52;3.13;;;;;;;-146.90;100.00;60518.97;5028576;28;20032;-76
2021/11/01 01:54:36;;;;;;;14.13;2.92;;;;;;;-146.90;100.00;60518.97;5027512;28;20033;-76
2021/11/01 01:57:03;;;;;;;17.10;3.58;;;;;;;-146.90;100.00;60518.97;5027948;28;20036;-76
2021/11/01 01:59:29;;;;;;;14.55;2.50;;;;;;;-146.90;100.00;60518.97;5028838;28;20367;-76
2021/11/01 02:01:54;;;;;;;13.55;2.85;;;;;;;-146.90;100.00;60518.97;5027118;28;20371;-76
2021/11/01 02:04:22;;;;;;;11.52;2.92;;;;;;;-146.90;100.00;60518.97;5028470;28;20025;-76
2021/11/01 02:07:09;;;;;;;14.25;2.67;;;;;;;-146.90;100.00;60518.97;5028213;28;20120;-77
2021/11/01 02:09:44;;;;;;;11.30;2.67;;;;;;;-146.90;100.00;60518.97;5031933;28;20037;-76
2021/11/01 02:12:13;;;;;;;14.73;3.17;;;;;;;-146.90;100.00;60518.97;5033076;28;20096;-76
2021/11/01 02:14:48;;;;;;;11.00;2.28;;;;;;;-146.90;100.00;60518.97;5031436;28;20519;-77
2021/11/01 02:17:17;;;;;;;9.05;2.42;;;;;;;-146.90;100.00;60518.97;5031374;28;20445;-77
2021/11/01 02:19:48;;;;;;;8.25;2.40;;;;;;;-146.90;100.00;60518.97;5032933;28;20040;-76
2021/11/01 02:22:17;;;;;;;10.02;2.42;;;;;;;-146.90;100.00;60518.97;5030903;28;20021;-76
2021/11/01 02:24:59;;;;;;;14.95;3.50;;;;;;;-146.90;100.00;60518.97;5030989;28;20112;-77
2021/11/01 02:27:25;;;;;;;12.15;2.78;;;;;;;-146.90;100.00;60518.97;5031065;28;20034;-76
2021/11/01 02:29:50;;;;;;;12.02;2.63;;;;;;;-146.90;100.00;60518.97;5031341;28;20099;-76
2021/11/01 02:32:17;;;;;;;17.48;2.63;;;;;;;-146.90;100.00;60518.97;5030992;28;20025;-77
2021/11/01 02:34:43;;;;;;;13.68;2.60;;;;;;;-146.90;100.00;60518.97;5030389;28;20049;-77
2021/11/01 02:37:10;;;;;;;14.60;2.45;;;;;;;-146.90;100.00;60518.97;5030497;28;20487;-76
2021/11/01 02:39:53;;;;;;;10.02;2.42;;;;;;;-146.90;100.00;60518.97;5031253;28;20526;-77
2021/11/01 02:42:20;;;;;;;13.13;2.75;;;;;;;-146.90;100.00;60518.97;5024222;28;20130;-77
2021/11/01 02:45:05;;;;;;;14.13;2.30;;;;;;;-146.90;100.00;60518.97;5030521;28;20072;-75
2021/11/01 02:47:30;;;;;;;;;;;;;;;-146.90;100.00;60518.97;5032590;28;20044;-76
2021/11/01 02:49:57;;;;;;;12.15;2.42;;;;;;;-146.90;100.00;60518.97;5014346;28;19909;-76
2021/11/01 02:52:24;;;;;;;14.73;2.70;;;;;;;-146.90;100.00;60518.97;5032359;28;20398;-77
2021/11/01 02:54:50;;;;;;;14.68;2.70;;;;;;;-146.90;100.00;60518.97;5014155;28;20029;-76
2021/11/01 02:57:16;;;;;;;11.35;2.30;;;;;;;-146.90;100.00;60518.97;5032112;28;20057;-76
2021/11/01 02:59:41;;;;;;;11.10;2.20;;;;;;;-146.90;100.00;60518.97;5031857;28;20029;-76
2021/11/01 03:02:07;;;;;;;15.35;2.80;;;;;;;-146.90;100.00;60518.97;5030827;28;20025;-76
2021/11/01 03:04:33;;;;;;;12.80;2.65;;;;;;;-146.90;100.00;60518.97;5030556;28;20030;-76
2021/11/01 03:06:59;;;;;;;10.95;2.33;;;;;;;-146.90;100.00;60518.97;5029785;28;20048;-76
2021/11/01 03:09:28;;;;;;;11.30;2.58;;;;;;;-146.90;100.00;60518.97;5030493;28;20094;-76
2021/11/01 03:11:54;;;;;;;14.20;2.50;;;;;;;-146.90;100.00;60518.97;5031311;28;20025;-76
2021/11/01 03:14:22;;;;;;;10.82;2.53;;;;;;;-146.90;100.00;60518.97;5030240;28;20021;-77
2021/11/01 03:16:49;;;;;;;15.00;2.85;;;;;;;-146.90;100.00;60518.97;5029410;28;20060;-76
2021/11/01 03:19:19;;;;;;;13.63;2.35;;;;;;;-146.90;100.00;60518.97;5029525;28;20029;-76
2021/11/01 03:21:45;;;;;;;11.00;2.53;;;;;;;-146.90;100.00;60518.97;5029460;28;20120;-76
2021/11/01 03:24:13;;;;;;;11.30;2.25;;;;;;;-146.90;100.00;60518.97;5013742;28;20060;-76
2021/11/01 03:26:38;;;;;;;12.80;2.75;;;;;;;-146.90;100.00;60518.97;5029125;28;20119;-76
2021/11/01 03:29:05;;;;;;;14.63;3.33;;;;;;;-146.90;100.00;60518.97;5032168;28;20109;-76
2021/11/01 03:31:31;;;;;;;13.30;2.72;;;;;;;-146.90;100.00;60518.97;5030614;28;20017;-76
2021/11/01 03:33:58;;;;;;;10.50;2.58;;;;;;;-146.90;100.00;60518.97;5029791;28;20025;-76
2021/11/01 03:36:24;;;;;;;14.57;2.63;;;;;;;-146.90;100.00;60518.97;5029229;28;20025;-77
2021/11/01 03:38:51;;;;;;;11.88;2.60;;;;;;;-146.90;100.00;60518.97;5029615;28;20025;-76
2021/11/01 03:41:17;;;;;;;9.70;2.13;;;;;;;-146.90;100.00;60518.97;5030556;28;20097;-77
2021/11/01 03:43:53;;;;;;;11.38;2.95;;;;;;;-146.90;100.00;60518.97;5029759;28;20025;-77
2021/11/01 03:46:26;;;;;;;11.93;2.63;;;;;;;-146.90;100.00;60518.97;5028920;28;20021;-76
2021/11/01 03:48:52;;;;;;;10.50;2.28;;;;;;;-146.90;100.00;60518.97;5029746;28;20021;-77
2021/11/01 03:52:21;;;;;;;17.77;3.03;;;;;;;-146.90;100.00;60518.97;5029038;28;20021;-76
2021/11/01 03:54:14;;;;;;;16.15;2.90;;;;;;;-146.90;100.00;60518.97;5016668;28;20112;-77
2021/11/01 03:56:44;;;;;;;12.93;2.83;;;;;;;-146.90;100.00;60518.97;5027756;28;20497;-77
2021/11/01 03:59:10;;;;;;;10.52;2.58;;;;;;;-146.90;100.00;60518.97;5030736;28;20018;-76
2021/11/01 04:01:38;;;;;;;12.73;2.90;;;;;;;-146.90;100.00;60518.97;5029327;28;20021;-77
2021/11/01 04:04:04;;;;;;;15.20;2.40;;;;;;;-146.90;100.00;60518.97;5030813;28;20379;-77
2021/11/01 04:06:30;;;;;;;16.33;3.00;;;;;;;-146.90;100.00;60518.97;5030048;28;20390;-77
2021/11/01 04:08:56;;;;;;;15.23;2.80;;;;;;;-146.90;100.00;60518.97;5029902;28;20021;-77
2021/11/01 04:11:22;;;;;;;16.45;3.20;;;;;;;-146.90;100.00;60518.97;5030655;28;20466;-76
2021/11/01 04:13:51;;;;;;;10.27;2.50;;;;;;;-146.90;100.00;60518.97;5029178;28;20026;-76
2021/11/01 04:16:22;;;;;;;13.63;3.50;;;;;;;-146.90;100.00;60518.97;5013115;28;20390;-77
2021/11/01 04:21:15;;;;;;;16.50;2.40;;;;;;;-146.90;100.00;60518.97;5028921;28;20356;-75
2021/11/01 04:23:41;;;;;;;12.40;2.88;;;;;;;-146.90;100.00;60518.97;5028697;28;20028;-77
2021/11/01 04:26:07;;;;;;;17.73;3.30;;;;;;;-146.90;100.00;60518.97;5028886;28;20033;-75
2021/11/01 04:28:33;;;;;;;11.82;2.72;;;;;;;-146.90;100.00;60518.97;5030018;28;20029;-77
2021/11/01 04:31:08;;;;;;;11.25;2.75;;;;;;;-146.90;100.00;60518.97;5028775;28;20092;-77
2021/11/01 04:33:34;;;;;;;8.88;3.00;;;;;;;-146.90;100.00;60518.97;5028717;28;20021;-76
2021/11/01 04:35:59;;;;;;;18.58;3.15;;;;;;;-146.90;100.00;60518.97;5029233;28;20033;-75
2021/11/01 04:41:10;;;;;;;11.60;2.83;;;;;;;-146.90;100.00;60518.97;5029803;28;20469;-77
2021/11/01 04:54:28;;;;;;;11.27;2.80;;;;;;;-146.90;100.00;60518.97;5029565;28;20059;-76
2021/11/01 04:56:53;;;;;;;18.10;2.75;;;;;;;-146.90;100.00;60518.97;5027525;28;20026;-76
2021/11/01 04:59:20;;;;;;;14.52;2.65;;;;;;;-146.90;100.00;60518.97;5029889;28;20013;-76
2021/11/01 05:01:50;;;;;;;15.93;2.40;;;;;;;-146.90;100.00;60518.97;5028210;28;20021;-76
2021/11/01 05:04:18;;;;;;;11.95;2.60;;;;;;;-146.90;100.00;60518.97;5027940;28;20467;-76
2021/11/01 05:06:56;;;;;;;13.98;2.83;;;;;;;-146.90;100.00;60518.97;5028761;28;20022;-77
2021/11/01 05:09:32;;;;;;;15.57;3.55;;;;;;;-146.90;100.00;60518.97;5027539;28;20026;-77
2021/11/01 05:12:22;;;;;;;13.05;2.78;;;;;;;-146.90;100.00;60518.97;5028037;28;20029;-77
2021/11/01 05:15:00;;;;;;;12.52;2.40;;;;;;;-146.90;100.00;60518.97;5028592;28;20032;-77
2021/11/01 05:20:06;;;;;;;10.60;2.75;;;;;;;-146.90;100.00;60518.97;5027589;28;20483;-77
2021/11/01 05:22:37;;;;;;;13.63;3.00;;;;;;;-146.90;100.00;60518.97;5027914;28;20494;-77
2021/11/01 05:25:54;;;;;;;10.55;2.65;;;;;;;-146.90;100.00;60518.97;5027281;28;20063;-76
2021/11/01 05:30:34;;;;;;;12.07;2.47;;;;;;;-146.90;100.00;60518.97;5028812;28;20033;-75
2021/11/01 05:33:05;;;;;;;9.75;2.90;;;;;;;-146.90;100.00;60518.97;5029268;28;20430;-77
2021/11/01 05:35:31;;;;;;;12.60;2.63;;;;;;;-146.90;100.00;60518.97;5028217;28;20037;-77
2021/11/01 05:37:56;;;;;;;14.40;3.30;;;;;;;-146.90;100.00;60518.97;5029289;28;20063;-78
2021/11/01 05:40:21;;;;;;;17.55;3.47;;;;;;;-146.90;100.00;60518.97;5028659;28;20068;-76
2021/11/01 05:42:47;;;;;;;14.43;2.72;;;;;;;-146.90;100.00;60518.97;5028687;28;20029;-77
2021/11/01 05:45:12;;;;;;;17.80;3.08;;;;;;;-146.90;100.00;60518.97;5028238;28;20452;-76
2021/11/01 05:47:41;;;;;;;13.43;2.75;;;;;;;-146.90;100.00;60518.97;5029145;28;20433;-76
2021/11/01 05:50:08;;;;;;;15.10;3.13;;;;;;;-146.90;100.00;60518.97;5028799;28;20025;-77
2021/11/01 05:52:34;;;;;;;15.52;3.00;;;;;;;-146.90;100.00;60518.97;5028875;28;20474;-76
2021/11/01 05:55:10;;;;;;;14.60;3.65;;;;;;;-146.90;100.00;60518.97;5023463;28;20280;-77
2021/11/01 06:00:40;;;;;;;14.45;2.70;;;;;;;-146.90;100.00;60518.97;5020776;28;20044;-77
2021/11/01 06:03:16;;;;;;;17.63;3.28;;;;;;;-146.90;100.00;60518.97;5014309;28;20045;-76
2021/11/01 06:13:41;;;;;;;13.02;2.85;;;;;;;-146.90;100.00;60518.97;5011273;28;20506;-76
2021/11/01 06:16:07;;;;;;;14.10;2.90;;;;;;;-146.90;100.00;60518.97;5010349;28;20022;-77
2021/11/01 06:18:35;;;;;;;13.07;2.55;;;;;;;-146.90;100.00;60518.97;5011546;28;20057;-77
2021/11/01 06:21:05;;;;;;;14.10;2.63;;;;;;;-146.90;100.00;60518.97;5011472;28;20153;-76
2021/11/01 06:23:31;;;;;;;12.25;3.15;;;;;;;-146.90;100.00;60518.97;5018939;28;20172;-75
2021/11/01 06:25:57;;;;;;;10.13;2.50;;;;;;;-146.90;100.00;60518.97;5021516;28;20029;-77
2021/11/01 06:28:22;;;;;;;16.52;3.15;;;;;;;-146.90;100.00;60518.97;5012643;28;20025;-76
2021/11/01 06:33:54;;;;;;;21.23;3.00;;;;;;;-146.90;100.00;60518.97;5020012;28;20068;-76
2021/11/01 06:42:04;;;;;;;15.95;3.10;;;;;;;-146.90;100.00;60518.97;5022403;28;20057;-74
2021/11/01 06:44:43;;;;;;;15.98;2.67;;;;;;;-146.90;100.00;60518.97;5015904;28;20084;-74
2021/11/01 06:49:53;;;;;;;13.23;2.50;;;;;;;-146.90;100.00;60518.97;5010554;28;20129;-78
2021/11/01 06:52:47;;;;;;;14.35;3.60;;;;;;;-146.90;100.00;60518.97;5037746;28;20049;-79
2021/11/01 07:14:18;;;;;;;17.73;2.60;;;;;;;-146.90;100.00;60518.97;5030646;28;20036;-78
2021/11/01 07:17:08;;;;;;;16.20;2.50;;;;;;;-146.90;100.00;60518.97;5030706;28;20399;-78
2021/11/01 07:19:58;;;;;;;17.27;2.67;;;;;;;-146.90;100.00;60518.97;5017784;28;20045;-78
2021/11/01 07:38:14;;;;;;;;;;;;;;;-146.90;100.00;60518.97;5031432;28;20152;-76
2021/11/01 08:17:30;;;;;;;18.67;2.47;;;;;;;-146.90;100.00;60518.97;5031831;28;20041;-77
2021/11/01 08:22:54;;;;;;;5.03;1.70;;;;;;;-146.90;100.00;60518.97;5030281;28;20028;-75
2021/11/01 09:05:59;;;;;;;13.23;2.30;;;;;;;-146.90;100.00;60518.97;5027900;28;20116;-76
2021/11/01 09:22:15;;;;;;;8.55;2.35;;;;;;;-146.90;100.00;60518.97;5027253;28;20040;-76
2021/11/01 09:24:45;;;;;;;11.68;2.95;;;;;;;-146.90;100.00;60518.97;5022702;28;20053;-76
2021/11/01 09:27:15;;;;;;;10.77;2.53;;;;;;;-146.90;100.00;60518.97;5019148;28;20021;-75
2021/11/01 09:37:59;;;;;;;11.57;2.20;;;;;;;-146.90;100.00;60518.97;5018503;28;20037;-75
2021/11/01 09:43:13;;;;;;;7.40;2.33;;;;;;;-146.90;100.00;60518.97;5027106;28;20121;-74
2021/11/01 09:45:38;;;;;;;7.50;2.35;;;;;;;-146.90;100.00;60518.97;5044271;28;20056;-75
2021/11/01 09:48:04;;;;;;;6.65;2.55;;;;;;;-146.90;100.00;60518.97;5039440;28;20049;-75
2021/11/01 09:50:31;;;;;;;5.15;1.90;;;;;;;-146.90;100.00;60518.97;5016728;28;20034;-74
2021/11/01 09:53:00;;;;;;;9.65;2.10;;;;;;;-146.90;100.00;60518.97;5025025;28;20781;-74
2021/11/01 10:00:52;;;;;;;4.53;1.50;;;;;;;-146.90;100.00;60518.97;5026969;28;20113;-75
2021/11/01 10:03:17;;;;;;;6.68;1.83;;;;;;;-146.90;100.00;60518.97;5027971;28;20037;-74
2021/11/01 10:05:57;;;;;;;9.90;2.20;;;;;;;-146.90;100.00;60518.97;5017154;28;20398;-75
2021/11/01 10:08:23;;;;;;;6.53;1.98;;;;;;;-146.90;100.00;60518.97;5008976;28;20026;-74
2021/11/01 10:10:49;;;;;;;5.68;1.52;;;;;;;-146.90;100.00;60518.97;5010679;28;20075;-75
2021/11/01 10:13:16;;;;;;;5.32;1.83;;;;;;;-146.90;100.00;60518.97;5027600;28;20446;-76
2021/11/01 10:18:46;;;;;;;6.82;2.00;;;;;;;-146.90;100.00;60518.97;4974714;28;20172;-75
2021/11/01 10:21:13;;;;;;;4.95;1.85;;;;;;;-146.90;100.00;60518.97;5001937;28;20110;-76
2021/11/01 10:23:48;;;;;;;7.45;1.80;;;;;;;-146.90;100.00;60518.97;5020141;28;20037;-76
2021/11/01 10:26:16;;;;;;;60.30;5.13;;;;;;;-146.90;100.00;60518.97;5025974;28;20033;-75
2021/11/01 10:28:44;;;;;;;7.53;2.10;;;;;;;-146.90;100.00;60518.97;5022166;28;20033;-74
2021/11/01 10:31:18;;;;;;;8.88;2.10;;;;;;;-146.90;100.00;60518.97;4997211;28;20144;-74
2021/11/01 10:33:45;;;;;;;;;;;;;;;-146.90;100.00;60518.97;5032548;28;20026;-75
2021/11/01 10:36:30;;;;;;;6.53;2.40;;;;;;;-146.90;100.00;60518.97;5030822;28;19917;-75
2021/11/01 10:39:02;;;;;;;4.35;1.65;;;;;;;-146.90;100.00;60518.97;5018844;28;20036;-76
2021/11/01 11:11:29;;;;;;;;;;;;;;;-146.90;100.00;60518.97;5017679;28;20451;-74
2021/11/01 11:14:16;;;;;;;8.13;2.55;;;;;;;-146.90;100.00;60518.97;5025436;28;20333;-77
2021/11/01 11:17:05;;;;;;;10.85;2.22;;;;;;;-146.90;100.00;60518.97;5019314;28;20041;-77
2021/11/01 11:25:02;;;;;;;9.10;2.22;;;;;;;-146.90;100.00;60518.97;5030142;28;20053;-76
2021/11/01 11:33:34;;;;;;;5.85;2.00;;;;;;;-146.90;100.00;60518.97;5016386;28;20618;-75
2021/11/01 11:39:24;;;;;;;14.00;2.47;;;;;;;-146.90;100.00;60518.97;5030511;28;20051;-78
2021/11/01 11:47:25;;;;;;;7.03;2.25;;;;;;;-146.90;100.00;60518.97;5028196;28;20033;-75
2021/11/01 11:49:52;;;;;;;;;;;;;;;-146.90;100.00;60518.97;5029360;28;20364;-74
2021/11/01 11:52:21;;;;;;;6.78;1.95;;;;;;;-146.90;100.00;60518.97;5029103;28;20363;-74
2021/11/01 11:54:53;;;;;;;5.80;2.25;;;;;;;-146.90;100.00;60518.97;5029627;28;20037;-76
2021/11/01 11:57:33;;;;;;;9.00;2.40;;;;;;;-146.90;100.00;60518.97;5032131;28;20026;-74
2021/11/01 11:59:59;;;;;;;6.10;1.67;;;;;;;-146.90;100.00;60518.97;5028809;28;20033;-75
2021/11/01 12:02:40;;;;;;;8.65;2.10;;;;;;;-146.90;100.00;60518.97;5029281;28;20048;-74
2021/11/01 12:07:52;;;;;;;10.43;2.53;;;;;;;-146.90;100.00;60518.97;5019288;28;20049;-76
2021/11/01 12:19:03;;;;;;;11.07;2.53;;;;;;;-146.90;100.00;60518.97;5028800;28;20139;-72
2021/11/01 12:21:31;;;;;;;5.78;1.38;;;;;;;-146.90;100.00;60518.97;5009340;28;20168;-72
2021/11/01 12:23:56;;;;;;;9.45;2.67;;;;;;;-146.90;100.00;60518.97;5014040;28;20026;-72
2021/11/01 12:26:24;;;;;;;6.80;1.70;;;;;;;-146.90;100.00;60518.97;5028879;28;20043;-73
2021/11/01 12:28:51;;;;;;;6.35;2.05;;;;;;;-146.90;100.00;60518.97;5030009;28;20028;-72
2021/11/01 12:31:17;;;;;;;5.68;1.73;;;;;;;-146.90;100.00;60518.97;5031661;28;20021;-72
2021/11/01 12:33:53;;;;;;;6.65;1.83;;;;;;;-146.90;100.00;60518.97;5028438;28;20040;-73
2021/11/01 12:36:36;;;;;;;6.75;2.00;;;;;;;-146.90;100.00;60518.97;5023414;28;20108;-72
2021/11/01 12:39:11;;;;;;;7.30;1.80;;;;;;;-146.90;100.00;60518.97;5029365;28;20394;-73
2021/11/01 12:49:39;;;;;;;12.13;2.00;;;;;;;-146.90;100.00;60518.97;5028485;28;19948;-72
2021/11/01 12:57:31;;;;;;;7.15;1.60;;;;;;;-146.90;100.00;60518.97;5029543;28;20029;-74
2021/11/01 12:59:57;;;;;;;8.85;1.58;;;;;;;-146.90;100.00;60518.97;5028662;28;20032;-74
2021/11/01 13:02:27;;;;;;;14.25;1.90;;;;;;;-146.90;100.00;60518.97;5028893;28;20030;-74
2021/11/01 13:04:53;;;;;;;7.15;2.47;;;;;;;-146.90;100.00;60518.97;5028543;28;20044;-73
2021/11/01 13:07:40;;;;;;;6.82;2.10;;;;;;;-146.90;100.00;60518.97;5023703;28;20487;-73
2021/11/01 13:10:24;;;;;;;8.05;2.25;;;;;;;-146.90;100.00;60518.97;5022523;28;20114;-76
2021/11/01 13:13:13;;;;;;;7.32;2.08;;;;;;;-146.90;100.00;60518.97;5026957;28;20121;-74
2021/11/01 13:18:24;;;;;;;8.05;1.73;;;;;;;-146.90;100.00;60518.97;5028851;28;20120;-74
2021/11/01 13:20:54;;;;;;;7.68;2.42;;;;;;;-146.90;100.00;60518.97;5028582;28;20024;-74
2021/11/01 13:23:22;;;;;;;11.15;2.10;;;;;;;-146.90;100.00;60518.97;5028098;28;20083;-74
2021/11/01 13:26:13;;;;;;;9.15;2.05;;;;;;;-146.90;100.00;60518.97;5027690;28;20087;-74
2021/11/01 13:28:49;;;;;;;8.52;2.40;;;;;;;-146.90;100.00;60518.97;5028485;28;20076;-74
2021/11/01 13:36:49;;;;;;;9.73;2.50;;;;;;;-146.90;100.00;60518.97;5027857;28;20033;-75
2021/11/01 13:39:25;;;;;;;12.10;2.10;;;;;;;-146.90;100.00;60518.97;5027908;28;20029;-74
2021/11/01 13:41:50;;;;;;;9.73;2.17;;;;;;;-146.90;100.00;60518.97;5028227;28;20025;-74
2021/11/01 13:44:20;;;;;;;8.65;2.40;;;;;;;-146.90;100.00;60518.97;5027812;28;20028;-74
2021/11/01 13:46:51;;;;;;;12.13;2.40;;;;;;;-146.90;100.00;60518.97;5027455;28;20035;-74
2021/11/01 13:49:18;;;;;;;9.18;2.38;;;;;;;-146.90;100.00;60518.97;5028087;28;20416;-74
2021/11/01 13:51:46;;;;;;;8.70;1.98;;;;;;;-146.90;100.00;60518.97;5028146;28;20108;-74
2021/11/01 13:56:48;;;;;;;12.60;2.05;;;;;;;-146.90;100.00;60518.97;5025436;28;20609;-75
2021/11/01 14:02:48;;;;;;;9.27;2.00;;;;;;;-146.90;100.00;60518.97;5005140;28;20040;-75
2021/11/01 14:13:14;;;;;;;8.27;1.90;;;;;;;-146.90;100.00;60518.97;5016257;28;20514;-75
2021/11/01 14:16:17;;;;;;;5.32;1.63;;;;;;;-146.90;100.00;60518.97;5015741;28;20030;-75
2021/11/01 14:32:28;;;;;;;3.55;1.70;;;;;;;-146.90;100.00;60518.97;5027004;28;20095;-74
2021/11/01 14:58:03;;;;;;;3.90;1.17;;;;;;;-146.90;100.00;60518.97;5025786;28;20148;-75
2021/11/01 15:10:45;;;;;;;2.58;1.35;;;;;;;-146.90;100.00;60518.97;5027546;28;20072;-75
2021/11/01 15:21:03;;;;;;;3.30;1.10;;;;;;;-146.90;100.00;60518.97;5030728;28;20266;-76
2021/11/01 15:23:42;;;;;;;3.55;1.10;;;;;;;-146.90;100.00;60518.97;5030846;28;20731;-74
2021/11/01 15:26:26;;;;;;;4.95;1.65;;;;;;;-146.90;100.00;60518.97;5030157;28;20033;-75
2021/11/01 15:31:59;;;;;;;6.28;1.45;;;;;;;-146.90;100.00;60518.97;5028072;28;20029;-76
2021/11/01 15:42:51;;;;;;;6.47;1.95;;;;;;;-146.90;100.00;60518.97;5027506;28;20040;-73
2021/11/01 16:18:07;;;;;;;2.17;0.80;;;;;;;-146.90;100.00;60518.97;5000946;28;20033;-74
2021/11/01 16:20:35;;;;;;;4.63;1.83;;;;;;;-146.90;100.00;60518.97;5024140;28;20033;-75
2021/11/01 16:25:39;;;;;;;3.45;1.25;;;;;;;-146.90;100.00;60518.97;5021574;28;20214;-73
2021/11/01 16:28:05;;;;;;;2.00;1.20;;;;;;;-146.90;100.00;60518.97;5028509;28;20024;-75
2021/11/01 16:30:32;;;;;;;1.75;0.77;;;;;;;-146.90;100.00;60518.97;5026307;28;20025;-74
2021/11/01 16:33:03;;;;;;;3.63;1.20;;;;;;;-146.90;100.00;60518.97;5029029;28;20497;-73
2021/11/01 16:35:36;;;;;;;2.05;1.27;;;;;;;-146.90;100.00;60518.97;5026688;28;20045;-74
2021/11/01 16:40:30;;;;;;;2.88;0.98;;;;;;;-146.90;100.00;60518.97;5029235;28;20021;-74
2021/11/01 16:42:56;;;;;;;4.70;1.80;;;;;;;-146.90;100.00;60518.97;5031752;28;20486;-74
2021/11/01 16:45:28;;;;;;;5.72;1.45;;;;;;;-146.90;100.00;60518.97;5027984;28;20041;-73
2021/11/01 16:47:53;;;;;;;1.85;1.15;;;;;;;-146.90;100.00;60518.97;5029220;28;20036;-74
2021/11/01 16:50:19;;;;;;;1.88;1.08;;;;;;;-146.90;100.00;60518.97;5025516;28;20029;-73
2021/11/01 16:52:46;;;;;;;3.85;1.30;;;;;;;-146.90;100.00;60518.97;5027668;28;20059;-74
2021/11/01 16:55:21;;;;;;;2.50;1.10;;;;;;;-146.90;100.00;60518.97;5028441;28;20493;-74
2021/11/01 16:57:54;;;;;;;4.00;1.58;;;;;;;-146.90;100.00;60518.97;5029089;28;20687;-74
2021/11/01 17:02:53;;;;;;;6.05;1.33;;;;;;;-146.90;100.00;60518.97;5028861;28;20034;-73
2021/11/01 17:10:37;;;;;;;3.17;1.40;;;;;;;-146.90;100.00;60518.97;5023112;28;20080;-72
2021/11/01 17:26:25;;;;;;;5.00;1.20;;;;;;;-146.90;100.00;60518.97;5028638;28;20112;-73
2021/11/01 18:40:42;;;;;;;5.15;2.90;;;;;;;-146.90;100.00;60518.97;5019525;28;20109;-76
2021/11/01 18:51:13;;;;;;;6.78;3.40;;;;;;;-146.90;100.00;60518.97;5022813;28;20044;-75
2021/11/01 18:53:42;;;;;;;6.32;3.00;;;;;;;-146.90;100.00;60518.97;5020440;28;20022;-76
2021/11/01 18:56:10;;;;;;;5.32;2.97;;;;;;;-146.90;100.00;60518.97;5031249;28;20109;-72
2021/11/01 18:58:39;;;;;;;5.75;3.00;;;;;;;-146.90;100.00;60518.97;5032222;28;20017;-72
2021/11/01 19:01:08;;;;;;;9.18;3.38;;;;;;;-146.90;100.00;60518.97;5030358;28;20053;-73
2021/11/01 19:03:39;;;;;;;7.35;3.20;;;;;;;-146.90;100.00;60518.97;5032073;28;20379;-72
2021/11/01 19:06:13;;;;;;;5.22;2.88;;;;;;;-146.90;100.00;60518.97;5031391;28;20071;-73
2021/11/01 19:08:52;;;;;;;6.75;3.10;;;;;;;-146.90;100.00;60518.97;5032047;28;20060;-73
2021/11/01 19:17:49;;;;;;;6.47;2.53;;;;;;;-146.90;100.00;60518.97;5015921;28;20076;-74
2021/11/01 21:26:17;;;;;;;6.35;2.83;;;;;;;-146.90;100.00;60518.97;5029430;28;20036;-76
2021/11/01 21:28:42;;;;;;;8.20;2.97;;;;;;;-146.90;100.00;60518.97;5029077;28;20331;-76
2021/11/01 21:31:08;;;;;;;5.70;2.67;;;;;;;-146.90;100.00;60518.97;5027507;28;20403;-76
2021/11/01 21:33:34;;;;;;;8.40;2.97;;;;;;;-146.90;100.00;60518.97;5026298;28;20502;-76
2021/11/01 21:36:06;;;;;;;7.63;2.78;;;;;;;-146.90;100.00;60518.97;5027737;28;20352;-75
2021/11/01 21:38:32;;;;;;;9.00;2.85;;;;;;;-146.90;100.00;60518.97;5028294;28;20426;-75
2021/11/01 21:40:57;;;;;;;8.98;3.15;;;;;;;-146.90;100.00;60518.97;5027027;28;20025;-77
2021/11/01 21:43:22;;;;;;;8.38;3.53;;;;;;;-146.90;100.00;60518.97;5028017;28;20048;-77
2021/11/01 21:45:48;;;;;;;6.82;2.95;;;;;;;-146.90;100.00;60518.97;5014996;28;20029;-76